createdAt,value
2023-03-22T00:00:17.259Z,62.30
2023-03-22T00:02:45.624Z,62.10
2023-03-22T00:05:14.068Z,62.46
2023-03-22T00:07:43.647Z,62.14
2023-03-22T00:10:12.537Z,62.29
2023-03-22T00:12:40.861Z,62.58
2023-03-22T00:15:11.309Z,62.67
2023-03-22T00:17:42.173Z,62.69
2023-03-22T00:20:11.618Z,63.04
2023-03-22T00:22:40.604Z,63.10
2023-03-22T00:25:09.587Z,63.25
2023-03-22T00:27:38.094Z,63.61
2023-03-22T00:30:07.657Z,63.75
2023-03-22T00:32:36.204Z,63.66
2023-03-22T00:35:07.360Z,63.68
2023-03-22T00:37:38.819Z,64.06
2023-03-22T00:40:10.591Z,63.96
2023-03-22T00:42:39.124Z,63.96
2023-03-22T00:45:09.568Z,63.99
2023-03-22T00:47:38.500Z,64.13
2023-03-22T00:50:09.651Z,64.07
2023-03-22T00:52:38.023Z,64.36
2023-03-22T00:55:07.040Z,64.02
2023-03-22T00:57:35.727Z,63.71
2023-03-22T01:00:10.219Z,64.11
2023-03-22T01:02:38.869Z,64.19
2023-03-22T01:05:09.779Z,64.30
2023-03-22T01:07:42.075Z,64.61
2023-03-22T01:10:11.528Z,64.44
2023-03-22T01:12:40.422Z,64.31
2023-03-22T01:15:10.250Z,64.15
2023-03-22T01:17:39.039Z,64.34
2023-03-22T01:20:11.495Z,64.15
2023-03-22T01:22:39.931Z,64.23
2023-03-22T01:25:09.819Z,64.36
2023-03-22T01:27:38.659Z,64.40
2023-03-22T01:30:08.511Z,64.24
2023-03-22T01:32:37.825Z,64.43
2023-03-22T01:35:07.006Z,64.30
2023-03-22T01:37:37.172Z,64.28
2023-03-22T01:40:06.629Z,64.55
2023-03-22T01:42:34.995Z,64.52
2023-03-22T01:45:38.637Z,64.62
2023-03-22T01:48:16.071Z,64.58
2023-03-22T01:50:49.660Z,64.60
2023-03-22T01:53:23.783Z,64.57
2023-03-22T01:55:53.938Z,64.69
2023-03-22T01:58:22.308Z,64.02
2023-03-22T02:00:52.844Z,64.62
2023-03-22T02:03:28.206Z,64.34
2023-03-22T02:05:56.923Z,64.24
2023-03-22T02:08:26.718Z,64.58
2023-03-22T02:10:55.086Z,64.96
2023-03-22T02:13:48.780Z,64.97
2023-03-22T02:16:31.405Z,65.07
2023-03-22T02:19:16.630Z,65.11
2023-03-22T02:22:09.983Z,64.98
2023-03-22T02:25:13.879Z,65.00
2023-03-22T02:28:17.459Z,64.98
2023-03-22T02:31:18.372Z,65.19
2023-03-22T02:34:45.232Z,64.90
2023-03-22T02:37:49.090Z,64.76
2023-03-22T02:40:32.379Z,64.80
2023-03-22T02:43:07.140Z,64.93
2023-03-22T02:45:41.710Z,64.97
2023-03-22T02:48:14.367Z,64.77
2023-03-22T02:50:47.866Z,64.74
2023-03-22T02:53:20.796Z,64.73
2023-03-22T02:55:55.637Z,64.90
2023-03-22T02:58:26.698Z,64.59
2023-03-22T03:01:00.839Z,64.59
2023-03-22T03:03:32.242Z,64.80
2023-03-22T03:06:06.226Z,64.99
2023-03-22T03:08:35.355Z,64.85
2023-03-22T03:11:05.805Z,64.82
2023-03-22T03:13:34.348Z,64.26
2023-03-22T03:16:07.920Z,64.87
2023-03-22T03:18:40.788Z,65.15
2023-03-22T03:21:24.753Z,64.91
2023-03-22T03:23:56.805Z,65.36
2023-03-22T03:26:34.872Z,64.86
2023-03-22T03:29:07.131Z,64.60
2023-03-22T03:31:42.816Z,64.46
2023-03-22T03:34:19.224Z,64.51
2023-03-22T03:36:52.974Z,64.47
2023-03-22T03:39:22.416Z,64.87
2023-03-22T03:41:54.640Z,64.56
2023-03-22T03:44:23.836Z,64.58
2023-03-22T03:46:54.260Z,64.78
2023-03-22T03:49:24.998Z,64.70
2023-03-22T03:51:56.047Z,64.96
2023-03-22T03:54:25.101Z,65.21
2023-03-22T03:56:55.043Z,65.03
2023-03-22T03:59:23.550Z,64.70
2023-03-22T04:01:52.670Z,64.93
2023-03-22T04:04:26.893Z,65.27
2023-03-22T04:06:56.902Z,65.42
2023-03-22T04:09:27.499Z,65.58
2023-03-22T04:11:58.305Z,65.40
2023-03-22T04:14:27.384Z,65.44
2023-03-22T04:16:56.616Z,65.88
2023-03-22T04:19:24.948Z,65.96
2023-03-22T04:21:53.389Z,66.38
2023-03-22T04:24:22.391Z,65.82
2023-03-22T04:26:50.950Z,65.96
2023-03-22T04:29:22.160Z,65.84
2023-03-22T04:31:50.499Z,65.67
2023-03-22T04:34:18.917Z,65.71
2023-03-22T04:36:47.331Z,65.67
2023-03-22T04:39:15.627Z,65.75
2023-03-22T04:41:43.963Z,65.75
2023-03-22T04:44:12.372Z,65.54
2023-03-22T04:46:42.922Z,65.51
2023-03-22T04:49:11.235Z,65.73
2023-03-22T04:51:39.503Z,65.61
2023-03-22T04:54:08.106Z,65.68
2023-03-22T04:56:36.496Z,65.48
2023-03-22T04:59:04.831Z,65.29
2023-03-22T05:01:35.458Z,65.22
2023-03-22T05:04:05.599Z,65.19
2023-03-22T05:06:34.337Z,64.97
2023-03-22T05:09:03.424Z,65.34
2023-03-22T05:11:31.817Z,65.25
2023-03-22T05:14:00.180Z,65.05
2023-03-22T05:16:28.661Z,64.92
2023-03-22T05:18:57.109Z,64.78
2023-03-22T05:21:28.399Z,64.96
2023-03-22T05:23:58.092Z,65.44
2023-03-22T05:26:27.533Z,65.14
2023-03-22T05:28:56.448Z,65.38
2023-03-22T05:31:24.951Z,65.43
2023-03-22T05:33:53.727Z,65.84
2023-03-22T05:36:24.130Z,65.81
2023-03-22T05:38:53.821Z,65.21
2023-03-22T05:41:22.157Z,65.24
2023-03-22T05:43:51.262Z,65.65
2023-03-22T05:46:19.596Z,65.60
2023-03-22T05:48:47.944Z,65.44
2023-03-22T05:51:19.880Z,65.38
2023-03-22T05:53:49.294Z,65.60
2023-03-22T05:56:21.998Z,65.26
2023-03-22T05:58:50.874Z,65.52
2023-03-22T06:01:20.637Z,65.49
2023-03-22T06:03:49.582Z,65.28
2023-03-22T06:06:17.917Z,65.17
2023-03-22T06:08:46.203Z,65.06
2023-03-22T06:11:14.629Z,65.00
2023-03-22T06:13:44.361Z,65.10
2023-03-22T06:16:12.904Z,64.38
2023-03-22T06:18:41.309Z,65.03
2023-03-22T06:21:09.731Z,64.90
2023-03-22T06:23:38.410Z,65.32
2023-03-22T06:26:07.005Z,65.05
2023-03-22T06:28:35.611Z,64.79
2023-03-22T06:31:09.833Z,64.80
2023-03-22T06:33:38.523Z,64.20
2023-03-22T06:36:07.688Z,64.33
2023-03-22T06:38:36.031Z,64.93
2023-03-22T06:41:04.456Z,64.83
2023-03-22T06:43:32.884Z,64.50
2023-03-22T06:46:01.345Z,64.06
2023-03-22T06:48:31.536Z,63.92
2023-03-22T06:51:00.976Z,64.15
2023-03-22T06:53:29.472Z,64.16
2023-03-22T06:55:57.897Z,63.81
2023-03-22T06:58:26.302Z,64.25
2023-03-22T07:00:56.879Z,63.70
2023-03-22T07:03:25.413Z,63.01
2023-03-22T07:06:01.558Z,63.36
2023-03-22T07:08:29.895Z,63.62
2023-03-22T07:10:58.467Z,62.72
2023-03-22T07:13:27.270Z,63.08
2023-03-22T07:15:57.806Z,63.02
2023-03-22T07:18:27.114Z,62.85
2023-03-22T07:20:56.823Z,63.42
2023-03-22T07:23:25.524Z,63.31
2023-03-22T07:25:56.150Z,63.05
2023-03-22T07:28:24.757Z,62.74
2023-03-22T07:31:01.449Z,62.85
2023-03-22T07:33:29.850Z,63.15
2023-03-22T07:35:59.903Z,62.25
2023-03-22T07:38:28.245Z,62.87
2023-03-22T07:40:56.765Z,62.70
2023-03-22T07:43:25.449Z,62.90
2023-03-22T07:45:54.521Z,62.57
2023-03-22T07:48:24.169Z,62.12
2023-03-22T07:50:56.518Z,62.44
2023-03-22T07:53:26.720Z,61.84
2023-03-22T07:55:55.070Z,61.78
2023-03-22T07:58:23.360Z,61.81
2023-03-22T08:00:51.749Z,61.83
2023-03-22T08:03:20.227Z,61.61
2023-03-22T08:05:48.717Z,61.27
2023-03-22T08:08:17.101Z,61.09
2023-03-22T08:10:50.491Z,60.98
2023-03-22T08:13:18.864Z,61.60
2023-03-22T08:15:47.501Z,60.98
2023-03-22T08:18:16.001Z,61.19
2023-03-22T08:20:45.473Z,61.21
2023-03-22T08:23:16.238Z,60.94
2023-03-22T08:25:46.297Z,60.60
2023-03-22T08:28:15.945Z,60.58
2023-03-22T08:30:44.831Z,60.40
2023-03-22T08:33:13.549Z,60.28
2023-03-22T08:35:42.787Z,60.29
2023-03-22T08:38:11.188Z,60.35
2023-03-22T08:40:39.554Z,60.15
2023-03-22T08:43:09.591Z,60.11
2023-03-22T08:45:38.325Z,59.83
2023-03-22T08:48:07.563Z,59.43
2023-03-22T08:50:36.246Z,59.59
2023-03-22T08:53:05.854Z,59.07
2023-03-22T08:55:36.588Z,59.31
2023-03-22T08:58:05.563Z,59.52
2023-03-22T09:00:47.711Z,59.45
2023-03-22T09:03:17.326Z,59.04
2023-03-22T09:05:45.707Z,58.54
2023-03-22T09:08:19.116Z,58.39
2023-03-22T09:10:51.844Z,58.73
2023-03-22T09:13:21.081Z,58.76
2023-03-22T09:15:52.774Z,57.99
2023-03-22T09:18:21.157Z,58.25
2023-03-22T09:20:49.508Z,58.03
2023-03-22T09:23:18.399Z,57.13
2023-03-22T09:25:47.852Z,57.80
2023-03-22T09:28:16.866Z,57.78
2023-03-22T09:30:45.780Z,58.04
2023-03-22T09:33:15.516Z,57.74
2023-03-22T09:35:44.446Z,58.03
2023-03-22T09:38:13.914Z,58.06
2023-03-22T09:40:52.008Z,57.15
2023-03-22T09:43:21.016Z,57.69
2023-03-22T09:45:53.212Z,57.88
2023-03-22T09:48:29.114Z,58.10
2023-03-22T09:50:58.065Z,58.33
2023-03-22T09:53:29.007Z,58.24
2023-03-22T09:56:02.193Z,57.94
2023-03-22T09:58:35.791Z,56.40
2023-03-22T10:01:07.891Z,56.34
2023-03-22T10:03:59.012Z,57.11
2023-03-22T10:06:29.558Z,57.45
2023-03-22T10:09:08.526Z,56.70
2023-03-22T10:11:46.148Z,56.07
2023-03-22T10:14:33.270Z,56.59
2023-03-22T10:17:05.820Z,56.36
2023-03-22T10:19:41.235Z,54.81
2023-03-22T10:22:12.758Z,54.81
2023-03-22T10:24:44.502Z,54.80
2023-03-22T10:27:17.288Z,54.70
2023-03-22T10:29:50.121Z,54.05
2023-03-22T10:32:20.271Z,54.63
2023-03-22T10:34:50.270Z,54.10
2023-03-22T10:37:21.735Z,54.29
2023-03-22T10:39:53.232Z,53.26
2023-03-22T10:42:24.891Z,53.63
2023-03-22T10:44:57.490Z,52.05
2023-03-22T10:47:34.007Z,52.20
2023-03-22T10:50:08.746Z,51.65
2023-03-22T10:52:44.346Z,51.67
2023-03-22T10:55:15.646Z,51.94
2023-03-22T10:57:47.648Z,51.30
2023-03-22T11:00:18.452Z,50.17
2023-03-22T11:02:52.794Z,50.89
2023-03-22T11:05:25.983Z,50.54
2023-03-22T11:07:54.839Z,50.64
2023-03-22T11:10:27.719Z,50.85
2023-03-22T11:12:58.745Z,50.86
2023-03-22T11:15:30.003Z,50.29
2023-03-22T11:18:04.057Z,50.30
2023-03-22T11:20:34.732Z,50.06
2023-03-22T11:23:07.078Z,49.74
2023-03-22T11:25:37.872Z,49.35
2023-03-22T11:28:11.777Z,49.57
2023-03-22T11:30:40.405Z,49.71
2023-03-22T11:33:18.920Z,49.41
2023-03-22T11:35:54.986Z,49.23
2023-03-22T11:38:31.177Z,48.44
2023-03-22T11:41:03.022Z,48.93
2023-03-22T11:43:36.286Z,49.24
2023-03-22T11:46:06.151Z,49.20
2023-03-22T11:48:35.474Z,49.29
2023-03-22T11:51:12.656Z,49.21
2023-03-22T11:53:43.901Z,49.21
2023-03-22T11:56:15.060Z,48.37
2023-03-22T11:58:59.795Z,48.82
2023-03-22T12:01:36.408Z,49.06
2023-03-22T12:04:09.304Z,48.99
2023-03-22T12:06:42.145Z,48.67
2023-03-22T12:09:23.101Z,49.10
2023-03-22T12:11:54.714Z,48.84
2023-03-22T12:14:27.401Z,49.02
2023-03-22T12:17:01.346Z,49.12
2023-03-22T12:19:43.176Z,49.31
2023-03-22T12:22:17.424Z,49.08
2023-03-22T12:24:47.009Z,48.37
2023-03-22T12:27:20.165Z,47.98
2023-03-22T12:29:56.000Z,48.40
2023-03-22T12:32:27.758Z,48.78
2023-03-22T12:35:16.134Z,48.98
2023-03-22T12:37:49.441Z,48.39
2023-03-22T12:40:23.637Z,48.66
2023-03-22T12:43:03.855Z,48.06
2023-03-22T12:45:38.113Z,47.45
2023-03-22T12:48:13.537Z,46.91
2023-03-22T12:50:46.860Z,47.35
2023-03-22T12:53:19.124Z,46.95
2023-03-22T12:55:49.507Z,47.34
2023-03-22T12:58:21.430Z,46.54
2023-03-22T13:00:54.517Z,46.19
2023-03-22T13:03:29.226Z,45.87
2023-03-22T13:06:03.375Z,46.11
2023-03-22T13:09:16.009Z,45.93
2023-03-22T13:11:45.946Z,45.61
2023-03-22T13:14:30.680Z,45.09
2023-03-22T13:17:01.546Z,44.90
2023-03-22T13:19:34.632Z,44.38
2023-03-22T13:22:21.397Z,44.08
2023-03-22T13:25:29.286Z,44.10
2023-03-22T13:27:59.222Z,43.57
2023-03-22T13:30:30.500Z,43.18
2023-03-22T13:33:04.541Z,43.52
2023-03-22T13:35:44.413Z,43.89
2023-03-22T13:38:21.753Z,43.57
2023-03-22T13:40:59.579Z,43.99
2023-03-22T13:43:34.427Z,42.88
2023-03-22T13:46:12.800Z,43.36
2023-03-22T13:48:54.475Z,43.54
2023-03-22T13:51:30.750Z,44.00
2023-03-22T13:54:04.803Z,44.10
2023-03-22T13:56:52.982Z,43.28
2023-03-22T13:59:27.402Z,43.73
2023-03-22T14:02:00.657Z,43.38
2023-03-22T14:04:35.188Z,43.19
2023-03-22T14:07:10.457Z,43.80
2023-03-22T14:09:45.709Z,43.62
2023-03-22T14:12:21.665Z,43.86
2023-03-22T14:14:56.504Z,44.54
2023-03-22T14:17:36.830Z,44.15
2023-03-22T14:20:10.611Z,44.44
